Time;durP1;ratioP1;P1;durP2;ratioP2;P2;SDS_P1;SDS_P2;PMS_P1;PMS_P2;Temp;Humidity;BMP_temperature;BMP_pressure;BME280_temperature;BME280_humidity;BME280_pressure;Samples;Min_cycle;Max_cycle;Signal;HPM_P1;HPM_P2
2022/10/10 00:05:38;;;;;;;9.23;4.63;;;;;;;8.13;100.00;100448.59;20574135;28;20074;-76
2022/10/10 00:15:39;;;;;;;10.13;4.57;;;;;;;8.07;100.00;100451.25;20573199;28;20070;-76
2022/10/10 00:25:43;;;;;;;11.90;5.22;;;;;;;8.00;100.00;100441.72;20573697;28;20118;-76
2022/10/10 00:35:45;;;;;;;8.52;5.25;;;;;;;7.88;100.00;100435.69;20584504;28;20051;-76
2022/10/10 00:45:46;;;;;;;9.70;5.07;;;;;;;7.86;100.00;100442.66;20588303;28;20059;-76
2022/10/10 00:55:47;;;;;;;10.88;4.85;;;;;;;7.80;100.00;100440.06;20586796;28;20113;-75
2022/10/10 01:05:49;;;;;;;14.35;5.03;;;;;;;7.69;100.00;100439.25;20585355;28;20050;-75
2022/10/10 01:15:50;;;;;;;11.23;5.00;;;;;;;7.67;100.00;100422.75;20585109;28;20079;-76
2022/10/10 01:25:51;;;;;;;11.68;5.22;;;;;;;7.71;100.00;100424.44;20584924;28;20086;-74
2022/10/10 01:35:52;;;;;;;11.85;5.30;;;;;;;7.60;100.00;100431.44;20583055;28;20117;-75
2022/10/10 01:45:54;;;;;;;11.27;5.57;;;;;;;7.56;100.00;100420.16;20581209;28;20113;-75
2022/10/10 01:55:56;;;;;;;11.25;5.72;;;;;;;7.46;100.00;100415.84;20538613;28;20133;-75
2022/10/10 02:05:57;;;;;;;11.52;5.63;;;;;;;7.51;100.00;100415.84;20500845;29;20056;-76
2022/10/10 02:15:58;;;;;;;10.18;5.25;;;;;;;7.50;100.00;100409.75;20501553;29;20062;-76
2022/10/10 02:26:00;;;;;;;10.48;5.45;;;;;;;7.56;100.00;100395.84;20500283;29;20055;-77
2022/10/10 02:36:01;;;;;;;10.55;5.00;;;;;;;7.29;100.00;100405.50;20570262;28;20089;-77
2022/10/10 02:46:03;;;;;;;10.23;4.95;;;;;;;7.25;100.00;100408.97;20578833;28;20050;-77
2022/10/10 02:56:04;;;;;;;9.93;5.20;;;;;;;7.24;100.00;100416.78;20577393;28;20099;-75
2022/10/10 03:06:05;;;;;;;11.43;5.93;;;;;;;7.20;100.00;100405.50;20576369;28;20471;-75
2022/10/10 03:16:07;;;;;;;11.48;5.03;;;;;;;7.07;100.00;100401.19;20576328;28;20061;-76
2022/10/10 03:26:08;;;;;;;12.52;6.20;;;;;;;7.06;100.00;100404.66;20575738;28;20063;-76
2022/10/10 03:36:09;;;;;;;10.32;5.28;;;;;;;7.06;100.00;100409.88;20574975;28;20050;-76
2022/10/10 03:46:11;;;;;;;10.82;5.50;;;;;;;7.03;100.00;100421.13;20574752;28;20051;-76
2022/10/10 03:56:16;;;;;;;9.50;5.38;;;;;;;7.00;100.00;100418.56;20575350;28;20073;-74
2022/10/10 04:06:17;;;;;;;11.18;5.53;;;;;;;7.00;100.00;100428.09;20577812;28;20055;-75
2022/10/10 04:16:19;;;;;;;10.30;5.60;;;;;;;6.93;100.00;100407.25;20590151;28;20081;-76
2022/10/10 04:26:20;;;;;;;11.90;5.85;;;;;;;6.83;100.00;100405.53;20589880;28;20126;-75
2022/10/10 04:36:21;;;;;;;12.43;5.47;;;;;;;6.82;100.00;100413.34;20587819;28;20102;-76
2022/10/10 04:46:23;;;;;;;13.38;5.30;;;;;;;6.99;100.00;100414.19;20587872;28;20058;-76
2022/10/10 04:56:24;;;;;;;11.18;5.95;;;;;;;7.12;100.00;100407.25;20587056;28;20098;-76
2022/10/10 05:06:26;;;;;;;15.60;5.68;;;;;;;7.31;100.00;100416.75;20525810;28;20114;-76
2022/10/10 05:16:27;;;;;;;10.82;5.93;;;;;;;7.59;100.00;100395.84;20424448;29;20059;-75
2022/10/10 05:26:28;;;;;;;13.40;6.32;;;;;;;7.75;100.00;100418.34;20425845;29;20055;-76
2022/10/10 05:36:30;;;;;;;11.18;5.63;;;;;;;7.96;100.00;100415.66;20575967;28;20407;-76
2022/10/10 05:46:31;;;;;;;10.07;4.95;;;;;;;8.09;100.00;100410.38;20584648;28;20059;-75
2022/10/10 05:56:32;;;;;;;8.82;5.13;;;;;;;8.30;100.00;100410.25;20583251;28;20111;-73
2022/10/10 06:06:34;;;;;;;10.52;5.40;;;;;;;8.42;100.00;100404.97;20581545;28;20106;-73
2022/10/10 06:16:35;;;;;;;11.85;5.90;;;;;;;8.54;100.00;100414.50;20580932;28;20059;-73
2022/10/10 06:26:37;;;;;;;11.63;5.82;;;;;;;8.74;100.00;100430.00;20545935;28;20055;-73
2022/10/10 06:36:38;;;;;;;15.50;6.35;;;;;;;8.99;100.00;100444.56;20528606;28;20615;-73
2022/10/10 06:46:39;;;;;;;13.35;6.57;;;;;;;9.20;100.00;100442.66;20498032;29;20059;-73
2022/10/10 06:56:41;;;;;;;13.70;6.43;;;;;;;9.59;100.00;100458.81;20495651;29;20082;-72
2022/10/10 07:06:42;;;;;;;9.55;5.70;;;;;;;10.08;100.00;100458.25;20495896;29;20551;-73
2022/10/10 07:16:43;;;;;;;9.70;5.30;;;;;;;9.94;100.00;100464.50;20492807;29;20051;-73
2022/10/10 07:26:45;;;;;;;8.32;5.10;;;;;;;10.20;100.00;100476.38;20494945;29;20047;-73
2022/10/10 07:36:49;;;;;;;13.07;6.03;;;;;;;10.43;100.00;100490.06;20493848;28;20058;-72
2022/10/10 07:46:50;;;;;;;8.73;5.53;;;;;;;10.90;100.00;100482.41;20494892;28;20047;-74
2022/10/10 07:56:51;;;;;;;13.30;6.05;;;;;;;11.25;100.00;100481.81;20495026;29;20043;-76
2022/10/10 08:06:53;;;;;;;13.90;6.30;;;;;;;11.63;100.00;100488.13;20494766;29;20122;-75
2022/10/10 08:16:54;;;;;;;13.30;6.72;;;;;;;12.32;100.00;100477.16;20495055;29;20098;-75
2022/10/10 08:26:56;;;;;;;12.43;6.30;;;;;;;12.48;100.00;100486.44;20494343;29;20047;-76
2022/10/10 08:36:58;;;;;;;9.77;6.38;;;;;;;12.44;100.00;100483.91;20504426;28;20111;-77
2022/10/10 08:46:59;;;;;;;15.82;7.13;;;;;;;12.65;100.00;100479.91;20494643;29;20059;-76
2022/10/10 08:57:00;;;;;;;12.40;6.63;;;;;;;12.95;100.00;100478.34;20504499;28;20500;-77
2022/10/10 09:07:02;;;;;;;12.75;7.30;;;;;;;13.41;100.00;100475.44;20507225;29;20051;-76
2022/10/10 09:17:03;;;;;;;15.77;8.52;;;;;;;13.86;100.00;100475.13;20507026;29;20457;-76
2022/10/10 09:27:05;;;;;;;12.50;7.03;;;;;;;14.38;100.00;100465.72;20507413;28;20382;-76
2022/10/10 09:37:06;;;;;;;15.57;7.07;;;;;;;14.93;100.00;100460.50;20585724;28;20047;-77
2022/10/10 09:47:08;;;;;;;8.30;4.95;;;;;;;15.44;100.00;100444.69;20585958;28;20051;-77
2022/10/10 09:57:09;;;;;;;9.27;5.45;;;;;;;15.69;100.00;100441.22;20584122;28;20105;-78
2022/10/10 10:07:10;;;;;;;11.35;4.90;;;;;;;16.02;100.00;100445.25;20581928;28;20055;-78
2022/10/10 10:17:12;;;;;;;13.18;5.43;;;;;;;16.33;100.00;100446.72;20582634;28;20447;-77
2022/10/10 10:27:13;;;;;;;10.50;4.70;;;;;;;16.73;100.00;100440.75;20581222;28;20117;-76
2022/10/10 10:37:14;;;;;;;9.55;4.40;;;;;;;16.83;100.00;100447.41;20579876;28;20079;-75
2022/10/10 10:47:16;;;;;;;9.90;4.05;;;;;;;17.06;100.00;100449.09;20579832;28;20105;-75
2022/10/10 10:57:17;;;;;;;9.02;4.45;;;;;;;17.30;100.00;100439.25;20578331;28;20066;-76
2022/10/10 11:07:36;;;;;;;11.43;4.00;;;;;;;17.73;99.94;100433.88;20577716;28;20051;-77
2022/10/10 11:17:38;;;;;;;9.90;3.83;;;;;;;17.98;97.38;100436.31;20585469;28;20472;-77
2022/10/10 11:27:39;;;;;;;12.13;3.53;;;;;;;18.30;93.21;100430.38;20578582;28;20047;-78
2022/10/10 11:37:41;;;;;;;9.52;3.08;;;;;;;18.55;89.57;100415.94;20576001;28;20067;-77
2022/10/10 11:47:42;;;;;;;10.85;3.10;;;;;;;18.71;86.72;100420.44;20576903;28;20053;-79
2022/10/10 11:57:43;;;;;;;10.10;2.70;;;;;;;19.05;80.38;100415.25;20576102;28;20050;-73
2022/10/10 12:07:45;;;;;;;15.63;3.08;;;;;;;19.17;78.98;100398.72;20573761;28;20404;-75
2022/10/10 12:17:46;;;;;;;11.45;3.40;;;;;;;19.38;76.60;100400.25;20574236;28;20093;-75
2022/10/10 12:27:48;;;;;;;8.68;2.67;;;;;;;19.46;72.43;100392.75;20579632;28;20047;-75
2022/10/10 12:37:49;;;;;;;9.82;2.97;;;;;;;19.53;74.63;100393.28;20588726;28;20097;-75
2022/10/10 12:47:52;;;;;;;10.23;2.67;;;;;;;19.76;71.17;100386.78;20589433;28;20414;-75
2022/10/10 12:58:06;;;;;;;10.73;2.63;;;;;;;19.95;70.96;100381.31;20586616;28;20050;-74
2022/10/10 13:08:07;;;;;;;11.55;3.03;;;;;;;19.99;69.57;100372.25;20586754;28;20062;-78
2022/10/10 13:18:09;;;;;;;13.98;3.83;;;;;;;20.16;71.15;100371.28;20590456;28;20051;-77
2022/10/10 13:28:10;;;;;;;12.40;2.70;;;;;;;20.13;69.14;100372.34;20591590;28;20109;-76
2022/10/10 13:38:12;;;;;;;12.68;2.75;;;;;;;20.22;69.52;100370.97;20588516;28;20130;-76
2022/10/10 13:48:13;;;;;;;15.40;3.53;;;;;;;20.35;68.96;100371.97;20589415;28;20050;-77
2022/10/10 13:58:14;;;;;;;16.58;4.18;;;;;;;20.30;70.60;100376.69;20590016;28;20051;-79
2022/10/10 14:08:16;;;;;;;11.07;3.13;;;;;;;20.44;70.50;100378.56;20597071;28;20101;-76
2022/10/10 14:18:17;;;;;;;14.48;3.03;;;;;;;20.56;71.42;100374.41;20582715;28;20055;-76
2022/10/10 14:28:18;;;;;;;17.55;3.10;;;;;;;20.41;72.09;100376.06;20582583;28;20054;-75
2022/10/10 14:38:20;;;;;;;15.85;3.10;;;;;;;20.27;74.50;100384.00;20581636;28;20051;-75
2022/10/10 14:48:22;;;;;;;12.20;3.10;;;;;;;20.21;76.50;100380.72;20579299;28;20134;-75
2022/10/10 14:58:24;;;;;;;8.70;2.65;;;;;;;20.15;75.90;100386.38;20578717;28;20050;-74
2022/10/10 15:08:25;;;;;;;11.43;3.58;;;;;;;20.17;75.36;100378.31;20577847;28;20047;-75
2022/10/10 15:18:26;;;;;;;11.85;3.25;;;;;;;20.06;77.61;100386.91;20577429;28;20058;-75
2022/10/10 15:28:48;;;;;;;11.57;3.30;;;;;;;20.10;78.15;100380.47;20575788;28;20057;-75
2022/10/10 15:38:49;;;;;;;11.07;3.28;;;;;;;19.84;80.46;100391.69;20575190;28;20071;-76
2022/10/10 15:48:50;;;;;;;12.90;3.40;;;;;;;19.75;84.05;100400.16;20575541;28;20071;-76
2022/10/10 15:58:52;;;;;;;9.68;3.20;;;;;;;19.45;86.65;100400.78;20558719;23;20061;-72
2022/10/10 16:08:53;;;;;;;11.25;3.35;;;;;;;19.09;88.74;100398.25;20501506;28;20472;-72
2022/10/10 16:19:15;;;;;;;13.30;4.35;;;;;;;18.88;95.87;100408.16;20504544;28;20063;-70
2022/10/10 16:29:17;;;;;;;12.82;4.50;;;;;;;18.45;100.00;100412.88;20519386;28;20063;-69
2022/10/10 16:39:18;;;;;;;12.95;5.07;;;;;;;17.83;100.00;100427.28;20495228;28;20106;-68
2022/10/10 16:49:22;;;;;;;12.20;4.38;;;;;;;17.43;100.00;100440.44;20499063;28;20059;-69
2022/10/10 16:59:23;;;;;;;9.43;4.70;;;;;;;17.16;100.00;100439.84;20576189;28;20133;-69
2022/10/10 17:09:24;;;;;;;16.20;5.70;;;;;;;16.89;100.00;100446.28;20549794;28;20051;-69
2022/10/10 17:19:27;;;;;;;15.30;6.30;;;;;;;16.65;100.00;100459.53;20494900;28;20491;-70
2022/10/10 17:29:28;;;;;;;23.58;14.35;;;;;;;16.47;100.00;100470.81;20487560;28;20142;-69
2022/10/10 17:39:30;;;;;;;22.67;11.52;;;;;;;16.32;100.00;100482.00;20423677;28;20064;-70
2022/10/10 17:49:31;;;;;;;22.60;8.45;;;;;;;16.21;100.00;100495.63;20414642;29;20055;-70
2022/10/10 17:59:32;;;;;;;13.70;7.30;;;;;;;16.08;100.00;100503.13;20413752;29;20469;-69
2022/10/10 18:09:34;;;;;;;14.07;7.30;;;;;;;16.09;100.00;100517.19;20415106;29;20051;-70
2022/10/10 18:19:35;;;;;;;16.85;7.53;;;;;;;16.14;100.00;100524.06;20491860;28;20464;-70
2022/10/10 18:29:38;;;;;;;18.20;6.80;;;;;;;16.24;100.00;100536.88;20510836;28;20062;-69
2022/10/10 18:39:41;;;;;;;15.25;5.88;;;;;;;16.08;100.00;100545.38;20485993;28;20133;-70
2022/10/10 18:49:42;;;;;;;15.00;7.18;;;;;;;16.04;100.00;100556.09;20489294;28;20059;-69
2022/10/10 18:59:43;;;;;;;13.63;7.30;;;;;;;16.04;100.00;100559.59;20486236;28;20091;-69
2022/10/10 19:09:45;;;;;;;14.75;6.68;;;;;;;16.06;100.00;100567.50;20441313;28;20572;-69
2022/10/10 19:19:47;;;;;;;14.10;6.60;;;;;;;16.05;100.00;100587.78;20454455;28;20055;-69
2022/10/10 19:29:48;;;;;;;18.55;6.20;;;;;;;15.96;100.00;100601.31;20552504;28;20055;-69
2022/10/10 19:39:50;;;;;;;13.88;6.57;;;;;;;15.95;100.00;100604.81;20566378;28;20054;-70
2022/10/10 19:49:52;;;;;;;11.25;5.00;;;;;;;16.00;100.00;100625.81;20541234;28;20508;-70
2022/10/10 19:59:53;;;;;;;15.48;5.00;;;;;;;15.89;100.00;100647.31;20486402;28;20060;-70
2022/10/10 20:09:54;;;;;;;15.50;6.40;;;;;;;15.81;100.00;100654.59;20485186;28;20096;-69
2022/10/10 20:19:56;;;;;;;15.20;6.57;;;;;;;15.77;100.00;100679.41;20485829;28;20063;-70
2022/10/10 20:29:57;;;;;;;15.45;6.80;;;;;;;15.71;100.00;100696.28;20509697;28;20587;-69
2022/10/10 20:39:58;;;;;;;12.13;6.18;;;;;;;15.61;100.00;100724.72;20564862;28;20105;-70
2022/10/10 20:50:00;;;;;;;16.02;6.38;;;;;;;15.45;100.00;100731.41;20572378;28;20145;-70
2022/10/10 21:00:01;;;;;;;12.13;4.75;;;;;;;15.48;100.00;100736.59;20579280;28;20467;-70
2022/10/10 21:10:02;;;;;;;11.65;4.32;;;;;;;15.93;100.00;100757.19;20572941;28;20055;-70
2022/10/10 21:20:04;;;;;;;15.82;4.95;;;;;;;16.09;100.00;100765.47;20499391;28;20079;-70
2022/10/10 21:30:05;;;;;;;16.27;4.88;;;;;;;16.18;100.00;100791.59;20522849;28;20106;-70
2022/10/10 21:40:07;;;;;;;14.68;5.53;;;;;;;16.30;100.00;100803.56;20577486;28;20062;-69
2022/10/10 21:50:08;;;;;;;11.40;4.70;;;;;;;16.35;100.00;100813.06;20577003;28;20055;-70
2022/10/10 22:00:10;;;;;;;11.18;3.72;;;;;;;16.24;100.00;100811.66;20569123;28;20086;-70
2022/10/10 22:10:14;;;;;;;12.35;4.13;;;;;;;16.01;100.00;100826.50;20503113;29;20055;-69
2022/10/10 22:20:16;;;;;;;11.07;4.90;;;;;;;15.98;100.00;100821.31;20502238;28;20492;-70
2022/10/10 22:30:17;;;;;;;14.15;4.55;;;;;;;16.05;100.00;100836.06;20527498;28;20051;-69
2022/10/10 22:40:21;;;;;;;10.70;4.68;;;;;;;15.92;100.00;100839.13;20580844;28;20460;-70
2022/10/10 22:50:22;;;;;;;13.48;4.80;;;;;;;15.79;100.00;100844.78;20579893;28;20054;-70
2022/10/10 23:00:23;;;;;;;12.13;4.38;;;;;;;15.75;100.00;100850.19;20579412;28;20053;-69
2022/10/10 23:10:25;;;;;;;9.38;4.43;;;;;;;15.56;100.00;100863.03;20578462;28;20057;-70
2022/10/10 23:20:26;;;;;;;11.00;4.30;;;;;;;15.53;100.00;100864.00;20578127;28;20070;-70
2022/10/10 23:30:27;;;;;;;14.43;4.78;;;;;;;15.57;100.00;100872.66;20548291;28;20039;-70
2022/10/10 23:40:30;;;;;;;9.15;4.32;;;;;;;15.51;100.00;100878.13;20497351;29;20087;-70
2022/10/10 23:50:31;;;;;;;12.85;4.82;;;;;;;15.53;100.00;100881.59;20496373;29;20051;-70
